Home   Weather   Fort Hood   Past weeks
Flag for USA

Past Weather in Fort Hood, Texas, USA — August 2020

Currently: 62 °F. Clear. (Weather station: Killeen Municipal, USA). See more current weather

August 2020 Weather in Fort Hood — Graph

°F

High & Low Weather Summary for August 2020

 TemperatureHumidityPressure
High106 °F (Aug 14, 3:56 pm)94% (Aug 22, 5:26 am)30.11 "Hg (Aug 22, 5:26 am)
Low66 °F (Aug 20, 5:56 am)17% (Aug 19, 4:56 pm)29.65 "Hg (Aug 31, 6:56 pm)
Average87 °F55%29.90 "Hg
* Reported Aug 1 12:56 am — Aug 31 11:56 pm, Fort Hood. Weather by CustomWeather, © 2021

Note: Actual official high and low records may vary slightly from our data, if they occured in-between our weather recording intervals... More about our weather records

Fort Hood Weather History for August 1, 2020

Scroll right to see more
 ConditionsComfort  
Time TempWeatherWind HumidityBarometerVisibility
12:56 am
Sat, Aug 1
80 °FWarm.No wind79%29.93 "Hg10 mi
1:56 am81 °FWarm.3 mph77%29.92 "Hg10 mi
2:56 am79 °FWarm.6 mph77%29.92 "Hg10 mi
3:56 am77 °FWarm.5 mph74%29.92 "Hg10 mi
4:56 am76 °FMild.3 mph74%29.91 "Hg10 mi
5:56 am74 °FMild.5 mph76%29.92 "Hg10 mi
6:56 am74 °FMild.5 mph74%29.93 "Hg10 mi
7:56 am75 °FMild.6 mph71%29.97 "Hg10 mi
8:56 am80 °FWarm.7 mph60%29.98 "Hg10 mi
9:56 am84 °FWarm.6 mph53%29.99 "Hg10 mi
10:56 am88 °FHot.8 mph45%30.00 "Hg10 mi
11:56 am89 °FHot.6 mph43%30.00 "Hg10 mi
12:56 pm91 °FHot.12 mph38%29.98 "Hg10 mi
1:56 pm93 °FHot.9 mph34%29.95 "Hg10 mi
2:56 pm93 °FHot.10 mph32%29.93 "Hg10 mi
3:56 pm95 °FExtremely hot.7 mph30%29.91 "Hg10 mi
4:56 pm95 °FExtremely hot.10 mph30%29.90 "Hg10 mi
5:56 pm95 °FExtremely hot.5 mph28%29.89 "Hg10 mi
6:56 pm95 °FExtremely hot.7 mph28%29.88 "Hg10 mi
7:56 pm91 °FHot.8 mph31%29.90 "Hg10 mi
8:56 pm86 °FPleasantly warm.6 mph39%29.91 "Hg10 mi
9:56 pm83 °FWarm.3 mph44%29.92 "Hg10 mi
10:56 pm82 °FWarm.3 mph49%29.94 "Hg10 mi
11:56 pm80 °FWarm.5 mph52%29.96 "Hg10 mi
Weather by CustomWeather, © 2021

See weather overview